createdAt,value
2019-06-10T00:00:13.449Z,0.00
2019-06-10T00:01:08.463Z,0.00
2019-06-10T00:02:07.258Z,0.00
2019-06-10T00:03:07.238Z,0.00
2019-06-10T00:04:08.864Z,0.00
2019-06-10T00:05:07.279Z,0.00
2019-06-10T00:06:07.149Z,0.00
2019-06-10T00:07:07.488Z,0.00
2019-06-10T00:08:07.423Z,0.00
2019-06-10T00:09:08.158Z,0.00
2019-06-10T00:10:07.724Z,0.00
2019-06-10T00:11:07.962Z,0.00
2019-06-10T00:12:09.461Z,0.00
2019-06-10T00:13:08.639Z,0.00
2019-06-10T00:14:10.569Z,0.00
2019-06-10T00:15:10.698Z,0.00
2019-06-10T00:16:08.628Z,0.00
2019-06-10T00:17:10.930Z,0.00
2019-06-10T00:18:30.842Z,0.00
2019-06-10T00:19:11.929Z,0.00
2019-06-10T00:20:11.136Z,0.00
2019-06-10T00:21:11.165Z,0.00
2019-06-10T00:22:11.649Z,0.00
2019-06-10T00:23:12.307Z,0.00
2019-06-10T00:24:11.789Z,0.00
2019-06-10T00:25:12.007Z,0.00
2019-06-10T00:26:12.385Z,0.00
2019-06-10T00:27:11.756Z,0.00
2019-06-10T00:28:12.096Z,0.00
2019-06-10T00:29:11.913Z,0.00
2019-06-10T00:30:12.257Z,0.00
2019-06-10T00:31:11.499Z,0.00
2019-06-10T00:32:13.039Z,0.00
2019-06-10T00:33:12.694Z,0.00
2019-06-10T00:34:12.399Z,0.00
2019-06-10T00:35:12.299Z,0.00
2019-06-10T00:36:13.568Z,0.00
2019-06-10T00:37:14.722Z,0.00
2019-06-10T00:38:14.380Z,0.00
2019-06-10T00:39:13.478Z,0.00
2019-06-10T00:40:14.184Z,0.00
2019-06-10T00:41:14.028Z,0.00
2019-06-10T00:42:15.078Z,0.00
2019-06-10T00:43:13.589Z,0.00
2019-06-10T00:44:12.977Z,0.00
2019-06-10T00:45:17.672Z,0.00
2019-06-10T00:46:13.382Z,0.00
2019-06-10T00:47:15.065Z,0.00
2019-06-10T00:48:23.942Z,0.00
2019-06-10T00:49:14.690Z,0.00
2019-06-10T00:50:14.821Z,0.00
2019-06-10T00:51:13.895Z,0.00
2019-06-10T00:52:14.209Z,0.00
2019-06-10T00:53:14.644Z,0.00
2019-06-10T00:54:15.720Z,0.00
2019-06-10T00:55:14.498Z,0.00
2019-06-10T00:56:14.647Z,0.00
2019-06-10T00:57:14.796Z,0.00
2019-06-10T00:58:14.948Z,0.00
2019-06-10T00:59:15.482Z,0.00
2019-06-10T01:00:25.381Z,0.00
2019-06-10T01:01:15.400Z,0.00
2019-06-10T01:02:15.548Z,0.00
2019-06-10T01:03:15.702Z,0.00
2019-06-10T01:04:16.514Z,0.00
2019-06-10T01:05:16.002Z,0.00
2019-06-10T01:06:16.152Z,0.00
2019-06-10T01:07:16.301Z,0.00
2019-06-10T01:08:16.453Z,0.00
2019-06-10T01:09:16.605Z,0.00
2019-06-10T01:10:16.755Z,0.00
2019-06-10T01:11:21.254Z,0.00
2019-06-10T01:12:17.055Z,0.00
2019-06-10T01:13:17.206Z,0.00
2019-06-10T01:14:17.390Z,0.00
2019-06-10T01:15:17.542Z,0.00
2019-06-10T01:16:17.692Z,0.00
2019-06-10T01:17:17.842Z,0.00
2019-06-10T01:18:31.977Z,0.00
2019-06-10T01:19:18.143Z,0.00
2019-06-10T01:20:18.293Z,0.00
2019-06-10T01:21:18.443Z,0.00
2019-06-10T01:22:21.116Z,0.00
2019-06-10T01:23:18.744Z,0.00
2019-06-10T01:24:18.896Z,0.00
2019-06-10T01:25:19.048Z,0.00
2019-06-10T01:26:21.577Z,0.00
2019-06-10T01:27:21.171Z,0.00
2019-06-10T01:28:21.828Z,0.00
2019-06-10T01:29:21.021Z,0.00
2019-06-10T01:30:24.562Z,0.00
2019-06-10T01:31:23.899Z,0.00
2019-06-10T01:32:21.659Z,0.00
2019-06-10T01:33:21.276Z,0.00
2019-06-10T01:34:21.748Z,0.00
2019-06-10T01:35:21.105Z,0.00
2019-06-10T01:36:21.199Z,0.00
2019-06-10T01:37:21.784Z,0.00
2019-06-10T01:38:21.272Z,0.00
2019-06-10T01:39:22.685Z,0.00
2019-06-10T01:40:21.303Z,0.00
2019-06-10T01:41:21.610Z,0.00
2019-06-10T01:42:21.744Z,0.00
2019-06-10T01:43:21.758Z,0.00
2019-06-10T01:44:22.281Z,0.00
2019-06-10T01:45:22.060Z,0.00
2019-06-10T01:46:22.207Z,0.00
2019-06-10T01:47:22.356Z,0.00
2019-06-10T01:48:22.514Z,0.00
2019-06-10T01:49:22.656Z,0.00
2019-06-10T01:50:22.805Z,0.00
2019-06-10T01:51:22.957Z,0.00
2019-06-10T01:52:23.107Z,0.00
2019-06-10T01:53:23.254Z,0.00
2019-06-10T01:54:23.407Z,0.00
2019-06-10T01:55:23.558Z,0.00
2019-06-10T01:56:23.707Z,0.00
2019-06-10T01:57:23.863Z,0.00
2019-06-10T01:58:24.008Z,0.00
2019-06-10T01:59:24.175Z,0.00
2019-06-10T02:00:26.072Z,0.00
2019-06-10T02:01:24.461Z,0.00
2019-06-10T02:02:24.615Z,0.00
2019-06-10T02:03:24.763Z,0.00
2019-06-10T02:04:24.916Z,0.00
2019-06-10T02:05:25.065Z,0.00
2019-06-10T02:06:25.885Z,0.00
2019-06-10T02:07:25.360Z,0.00
2019-06-10T02:08:25.514Z,0.00
2019-06-10T02:09:25.691Z,0.00
2019-06-10T02:10:25.814Z,0.00
2019-06-10T02:11:25.966Z,0.00
2019-06-10T02:12:26.118Z,0.00
2019-06-10T02:13:26.265Z,0.00
2019-06-10T02:14:26.418Z,0.00
2019-06-10T02:15:26.573Z,0.00
2019-06-10T02:16:26.718Z,0.00
2019-06-10T02:17:26.868Z,0.00
2019-06-10T02:18:27.019Z,0.00
2019-06-10T02:19:27.167Z,0.00
2019-06-10T02:20:27.318Z,0.00
2019-06-10T02:21:27.468Z,0.00
2019-06-10T02:22:27.620Z,0.00
2019-06-10T02:23:27.770Z,0.00
2019-06-10T02:24:27.920Z,0.00
2019-06-10T02:25:30.182Z,0.00
2019-06-10T02:26:28.219Z,0.00
2019-06-10T02:27:28.372Z,0.00
2019-06-10T02:28:28.522Z,0.00
2019-06-10T02:29:30.634Z,0.00
2019-06-10T02:30:44.527Z,0.00
2019-06-10T02:31:36.561Z,0.00
2019-06-10T02:32:36.905Z,0.00
2019-06-10T02:33:32.435Z,0.00
2019-06-10T02:34:33.060Z,4.00
2019-06-10T02:35:40.087Z,4.00
2019-06-10T02:36:35.345Z,4.00
2019-06-10T02:37:32.625Z,0.00
2019-06-10T02:38:37.931Z,4.00
2019-06-10T02:39:37.539Z,4.00
2019-06-10T02:40:33.100Z,4.00
2019-06-10T02:41:35.358Z,4.00
2019-06-10T02:42:34.827Z,4.00
2019-06-10T02:43:33.302Z,8.00
2019-06-10T02:44:34.354Z,8.00
2019-06-10T02:45:36.953Z,8.00
2019-06-10T02:46:35.736Z,8.00
2019-06-10T02:47:37.086Z,8.00
2019-06-10T02:48:34.837Z,12.00
2019-06-10T02:49:51.491Z,12.00
2019-06-10T02:50:35.787Z,12.00
2019-06-10T02:51:35.434Z,12.00
2019-06-10T02:52:37.183Z,16.00
2019-06-10T02:53:36.191Z,12.00
2019-06-10T02:54:35.822Z,16.00
2019-06-10T02:55:35.136Z,16.00
2019-06-10T02:56:36.297Z,16.00
2019-06-10T02:57:38.868Z,20.00
2019-06-10T02:58:38.334Z,24.00
2019-06-10T02:59:36.417Z,24.00
2019-06-10T03:00:39.785Z,28.00
2019-06-10T03:01:37.860Z,36.00
2019-06-10T03:02:36.402Z,36.00
2019-06-10T03:03:42.527Z,40.00
2019-06-10T03:04:37.586Z,40.00
2019-06-10T03:05:40.644Z,44.00
2019-06-10T03:06:39.381Z,44.00
2019-06-10T03:07:35.573Z,44.00
2019-06-10T03:08:36.123Z,44.00
2019-06-10T03:09:35.763Z,48.00
2019-06-10T03:10:37.079Z,56.00
2019-06-10T03:11:37.361Z,56.00
2019-06-10T03:12:35.149Z,60.00
2019-06-10T03:13:35.302Z,64.00
2019-06-10T03:14:35.450Z,68.00
2019-06-10T03:15:35.639Z,72.00
2019-06-10T03:16:35.758Z,76.00
2019-06-10T03:17:35.932Z,80.00
2019-06-10T03:18:36.051Z,84.00
2019-06-10T03:19:46.999Z,88.00
2019-06-10T03:20:36.353Z,88.00
2019-06-10T03:21:36.503Z,92.00
2019-06-10T03:22:36.651Z,96.00
2019-06-10T03:23:36.802Z,96.00
2019-06-10T03:24:36.952Z,100.00
2019-06-10T03:25:37.101Z,104.00
2019-06-10T03:26:37.251Z,108.00
2019-06-10T03:27:37.401Z,120.00
2019-06-10T03:28:37.551Z,132.00
2019-06-10T03:29:37.701Z,148.00
2019-06-10T03:30:49.790Z,160.00
2019-06-10T03:31:43.124Z,172.00
2019-06-10T03:32:42.535Z,184.00
2019-06-10T03:33:41.859Z,188.00
2019-06-10T03:34:46.012Z,192.00
2019-06-10T03:35:38.605Z,212.00
2019-06-10T03:36:38.755Z,232.00
2019-06-10T03:37:38.910Z,248.00
2019-06-10T03:38:39.107Z,252.00
2019-06-10T03:39:39.208Z,244.00
2019-06-10T03:40:39.355Z,236.00
2019-06-10T03:41:39.506Z,244.00
2019-06-10T03:42:39.666Z,260.00
2019-06-10T03:43:39.807Z,280.00
2019-06-10T03:44:39.958Z,304.00
2019-06-10T03:45:42.434Z,356.00
2019-06-10T03:46:40.264Z,416.00
2019-06-10T03:47:42.492Z,492.00
2019-06-10T03:48:43.080Z,564.00
2019-06-10T03:49:51.725Z,620.00
2019-06-10T03:50:43.000Z,652.00
2019-06-10T03:51:42.796Z,676.00
2019-06-10T03:52:43.156Z,688.00
2019-06-10T03:53:42.696Z,720.00
2019-06-10T03:54:43.299Z,752.00
2019-06-10T03:55:42.359Z,796.00
2019-06-10T03:56:43.056Z,848.00
2019-06-10T03:57:42.438Z,900.00
2019-06-10T03:58:43.023Z,956.00
2019-06-10T03:59:42.294Z,988.00
2019-06-10T04:00:43.019Z,960.00
2019-06-10T04:01:42.823Z,936.00
2019-06-10T04:02:43.172Z,932.00
2019-06-10T04:03:42.975Z,932.00
2019-06-10T04:04:43.066Z,960.00
2019-06-10T04:05:43.119Z,1012.00
2019-06-10T04:06:44.305Z,1076.00
2019-06-10T04:07:43.430Z,1168.00
2019-06-10T04:08:43.576Z,1284.00
2019-06-10T04:09:43.725Z,1396.00
2019-06-10T04:10:43.877Z,1452.00
2019-06-10T04:11:44.028Z,1492.00
2019-06-10T04:12:44.176Z,1584.00
2019-06-10T04:13:44.328Z,1720.00
2019-06-10T04:14:44.484Z,1864.00
2019-06-10T04:15:44.631Z,2048.00
2019-06-10T04:16:44.782Z,2240.00
2019-06-10T04:17:44.932Z,2404.00
2019-06-10T04:18:45.083Z,2508.00
2019-06-10T04:19:45.232Z,2596.00
2019-06-10T04:20:45.384Z,2608.00
2019-06-10T04:21:45.535Z,2520.00
2019-06-10T04:22:45.687Z,2360.00
2019-06-10T04:23:45.837Z,2228.00
2019-06-10T04:24:45.989Z,2072.00
2019-06-10T04:25:46.139Z,1976.00
2019-06-10T04:26:46.293Z,1956.00
2019-06-10T04:27:46.440Z,2012.00
2019-06-10T04:28:46.598Z,2136.00
2019-06-10T04:29:46.741Z,2300.00
2019-06-10T04:30:46.895Z,2472.00
2019-06-10T04:31:47.044Z,2644.00
2019-06-10T04:32:47.195Z,2844.00
2019-06-10T04:33:47.344Z,3024.00
2019-06-10T04:34:47.554Z,3184.00
2019-06-10T04:35:47.675Z,3444.00
2019-06-10T04:36:47.825Z,3776.00
2019-06-10T04:37:47.977Z,4028.00
2019-06-10T04:38:48.127Z,4276.00
2019-06-10T04:39:48.277Z,4436.00
2019-06-10T04:40:48.428Z,4452.00
2019-06-10T04:41:48.580Z,4480.00
2019-06-10T04:42:48.732Z,4464.00
2019-06-10T04:43:48.883Z,4400.00
2019-06-10T04:44:49.034Z,4340.00
2019-06-10T04:45:49.186Z,4360.00
2019-06-10T04:46:49.336Z,4404.00
2019-06-10T04:47:49.489Z,4416.00
2019-06-10T04:48:49.639Z,4364.00
2019-06-10T04:49:52.122Z,4288.00
2019-06-10T04:50:49.942Z,4264.00
2019-06-10T04:51:52.223Z,4312.00
2019-06-10T04:52:50.242Z,4364.00
2019-06-10T04:53:52.505Z,4456.00
2019-06-10T04:54:52.627Z,4620.00
2019-06-10T04:55:52.246Z,4808.00
2019-06-10T04:56:52.838Z,4996.00
2019-06-10T04:57:52.131Z,5200.00
2019-06-10T04:58:52.530Z,5348.00
2019-06-10T04:59:52.967Z,5356.00
2019-06-10T05:00:52.358Z,5348.00
2019-06-10T05:01:53.054Z,5344.00
2019-06-10T05:02:52.264Z,5332.00
2019-06-10T05:03:52.664Z,5300.00
2019-06-10T05:04:53.218Z,5324.00
2019-06-10T05:05:52.704Z,5476.00
2019-06-10T05:06:52.748Z,5572.00
2019-06-10T05:07:52.507Z,5656.00
2019-06-10T05:08:53.808Z,5672.00
2019-06-10T05:09:52.808Z,5680.00
2019-06-10T05:10:53.029Z,5660.00
2019-06-10T05:11:53.112Z,5616.00
2019-06-10T05:12:53.261Z,5640.00
2019-06-10T05:13:53.532Z,5748.00
2019-06-10T05:14:53.561Z,6008.00
2019-06-10T05:15:53.711Z,6308.00
2019-06-10T05:16:54.485Z,6380.00
2019-06-10T05:17:54.016Z,6312.00
2019-06-10T05:18:54.940Z,6240.00
2019-06-10T05:19:54.321Z,6012.00
2019-06-10T05:20:58.396Z,5696.00
2019-06-10T05:21:54.625Z,5468.00
2019-06-10T05:22:54.772Z,5416.00
2019-06-10T05:23:54.926Z,5312.00
2019-06-10T05:24:55.076Z,5124.00
2019-06-10T05:25:56.285Z,5084.00
2019-06-10T05:26:55.381Z,5168.00
2019-06-10T05:27:55.533Z,5244.00
2019-06-10T05:28:55.687Z,5328.00
2019-06-10T05:29:55.836Z,5528.00
2019-06-10T05:30:55.986Z,5648.00
2019-06-10T05:31:56.138Z,5748.00
2019-06-10T05:32:56.289Z,5928.00
2019-06-10T05:33:56.443Z,6136.00
2019-06-10T05:34:56.592Z,6300.00
2019-06-10T05:35:56.754Z,6300.00
2019-06-10T05:36:56.898Z,6372.00
2019-06-10T05:37:57.050Z,6456.00
2019-06-10T05:38:57.201Z,6484.00
2019-06-10T05:39:57.357Z,6204.00
2019-06-10T05:40:57.503Z,5968.00
2019-06-10T05:41:57.655Z,5772.00
2019-06-10T05:42:57.806Z,5512.00
2019-06-10T05:43:57.956Z,5148.00
2019-06-10T05:44:58.108Z,4788.00
2019-06-10T05:45:58.261Z,4500.00
2019-06-10T05:46:58.412Z,4384.00
2019-06-10T05:47:58.566Z,4360.00
2019-06-10T05:48:58.719Z,4268.00
2019-06-10T05:49:58.870Z,4224.00
2019-06-10T05:51:02.882Z,4288.00
2019-06-10T05:51:59.174Z,4284.00
2019-06-10T05:52:59.326Z,5224.00
2019-06-10T05:54:02.036Z,5352.00
2019-06-10T05:54:59.631Z,5124.00
2019-06-10T05:56:02.043Z,5024.00
2019-06-10T05:56:59.932Z,5188.00
2019-06-10T05:58:02.434Z,4428.00
2019-06-10T05:59:02.251Z,5312.00
2019-06-10T06:00:02.991Z,5164.00
2019-06-10T06:01:02.785Z,5108.00
2019-06-10T06:02:02.277Z,5268.00
2019-06-10T06:03:02.780Z,5316.00
2019-06-10T06:04:03.159Z,5240.00
2019-06-10T06:05:02.578Z,5380.00
2019-06-10T06:06:03.202Z,5376.00
2019-06-10T06:07:02.389Z,5400.00
2019-06-10T06:08:08.201Z,5392.00
2019-06-10T06:09:02.231Z,5388.00
2019-06-10T06:10:02.490Z,5392.00
2019-06-10T06:11:03.252Z,5388.00
2019-06-10T06:12:02.610Z,5380.00
2019-06-10T06:13:03.084Z,5368.00
2019-06-10T06:14:02.820Z,5364.00
2019-06-10T06:15:02.679Z,5364.00
2019-06-10T06:16:03.442Z,5368.00
2019-06-10T06:17:02.978Z,5376.00
2019-06-10T06:18:09.432Z,5380.00
2019-06-10T06:19:03.401Z,5392.00
2019-06-10T06:20:03.432Z,5404.00
2019-06-10T06:21:20.583Z,5420.00
2019-06-10T06:22:03.738Z,5436.00
2019-06-10T06:23:03.887Z,5460.00
2019-06-10T06:24:04.246Z,5504.00
2019-06-10T06:25:04.196Z,5552.00
2019-06-10T06:26:04.352Z,5588.00
2019-06-10T06:27:04.501Z,5640.00
2019-06-10T06:28:04.655Z,5724.00
2019-06-10T06:29:04.807Z,4836.00
2019-06-10T06:30:11.109Z,4656.00
2019-06-10T06:31:05.110Z,4532.00
2019-06-10T06:32:05.265Z,4828.00
2019-06-10T06:33:05.420Z,4956.00
2019-06-10T06:34:05.569Z,5876.00
2019-06-10T06:35:05.720Z,6700.00
2019-06-10T06:36:05.876Z,7528.00
2019-06-10T06:37:06.028Z,9128.00
2019-06-10T06:38:06.181Z,8628.00
2019-06-10T06:39:06.333Z,9672.00
2019-06-10T06:40:06.487Z,11056.00
2019-06-10T06:41:06.640Z,10872.00
2019-06-10T06:42:06.831Z,11384.00
2019-06-10T06:43:06.954Z,11236.00
2019-06-10T06:44:07.109Z,11432.00
2019-06-10T06:45:07.261Z,11892.00
2019-06-10T06:46:07.417Z,11936.00
2019-06-10T06:47:07.568Z,11220.00
2019-06-10T06:48:07.721Z,11324.00
2019-06-10T06:49:07.875Z,11476.00
2019-06-10T06:50:08.026Z,10560.00
2019-06-10T06:51:08.791Z,10392.00
2019-06-10T06:52:08.335Z,10440.00
2019-06-10T06:53:21.330Z,10524.00
2019-06-10T06:54:08.645Z,10252.00
2019-06-10T06:55:08.799Z,10264.00
2019-06-10T06:56:08.951Z,10212.00
2019-06-10T06:57:09.109Z,10808.00
2019-06-10T06:58:09.263Z,10196.00
2019-06-10T06:59:09.414Z,10360.00
2019-06-10T07:00:33.814Z,10160.00
2019-06-10T07:01:10.978Z,9788.00
2019-06-10T07:02:12.159Z,9252.00
2019-06-10T07:03:12.452Z,8688.00
2019-06-10T07:04:10.188Z,8084.00
2019-06-10T07:05:12.403Z,7684.00
2019-06-10T07:06:13.028Z,6964.00
2019-06-10T07:07:13.064Z,6380.00
2019-06-10T07:08:12.932Z,7288.00
2019-06-10T07:09:13.239Z,6772.00
2019-06-10T07:10:12.242Z,6524.00
2019-06-10T07:11:13.244Z,7352.00
2019-06-10T07:12:13.030Z,6460.00
2019-06-10T07:13:12.896Z,7420.00
2019-06-10T07:14:13.344Z,7008.00
2019-06-10T07:15:12.206Z,6688.00
2019-06-10T07:16:13.159Z,6748.00
2019-06-10T07:17:12.678Z,6824.00
2019-06-10T07:18:13.053Z,7100.00
2019-06-10T07:19:13.147Z,7612.00
2019-06-10T07:20:12.763Z,8160.00
2019-06-10T07:21:13.263Z,8572.00
2019-06-10T07:22:16.026Z,9280.00
2019-06-10T07:23:13.116Z,9800.00
2019-06-10T07:24:13.271Z,9736.00
2019-06-10T07:25:13.424Z,9796.00
2019-06-10T07:26:13.578Z,10836.00
2019-06-10T07:27:13.733Z,10580.00
2019-06-10T07:28:13.891Z,10664.00
2019-06-10T07:29:14.039Z,11272.00
2019-06-10T07:30:15.201Z,11700.00
2019-06-10T07:31:23.656Z,11920.00
2019-06-10T07:32:14.500Z,11792.00
2019-06-10T07:33:14.649Z,11420.00
2019-06-10T07:34:14.799Z,11420.00
2019-06-10T07:35:14.956Z,11588.00
2019-06-10T07:36:15.108Z,11604.00
2019-06-10T07:37:15.264Z,11460.00
2019-06-10T07:38:15.419Z,11492.00
2019-06-10T07:39:15.574Z,11376.00
2019-06-10T07:40:15.731Z,10824.00
2019-06-10T07:41:15.887Z,10468.00
2019-06-10T07:42:16.042Z,10512.00
2019-06-10T07:43:16.193Z,10884.00
2019-06-10T07:44:16.349Z,10908.00
2019-06-10T07:45:16.527Z,10440.00
2019-06-10T07:46:16.657Z,9864.00
2019-06-10T07:47:16.813Z,9368.00
2019-06-10T07:48:16.969Z,8868.00
2019-06-10T07:49:17.124Z,8544.00
2019-06-10T07:50:17.279Z,8320.00
2019-06-10T07:51:17.446Z,7568.00
2019-06-10T07:52:19.915Z,6768.00
2019-06-10T07:53:17.743Z,6216.00
2019-06-10T07:54:17.892Z,5908.00
2019-06-10T07:55:18.048Z,5712.00
2019-06-10T07:56:18.199Z,5740.00
2019-06-10T07:57:18.354Z,5996.00
2019-06-10T07:58:18.508Z,6264.00
2019-06-10T07:59:18.680Z,6672.00
2019-06-10T08:00:18.830Z,7048.00
2019-06-10T08:01:18.984Z,7312.00
2019-06-10T08:02:19.133Z,7668.00
2019-06-10T08:03:19.286Z,8096.00
2019-06-10T08:04:19.440Z,8676.00
2019-06-10T08:05:19.595Z,9256.00
2019-06-10T08:06:19.749Z,10152.00
2019-06-10T08:07:22.396Z,11480.00
2019-06-10T08:08:20.060Z,13004.00
2019-06-10T08:09:22.628Z,15264.00
2019-06-10T08:10:20.369Z,17056.00
2019-06-10T08:11:22.668Z,16896.00
2019-06-10T08:12:23.106Z,16928.00
2019-06-10T08:13:22.656Z,17472.00
2019-06-10T08:14:22.279Z,16736.00
2019-06-10T08:15:22.983Z,15648.00
2019-06-10T08:16:23.656Z,15552.00
2019-06-10T08:17:22.453Z,15340.00
2019-06-10T08:18:22.555Z,15032.00
2019-06-10T08:19:31.656Z,14776.00
2019-06-10T08:20:22.303Z,15360.00
2019-06-10T08:21:22.885Z,15648.00
2019-06-10T08:22:31.146Z,13548.00
2019-06-10T08:23:23.649Z,11200.00
2019-06-10T08:24:22.553Z,10124.00
2019-06-10T08:25:22.985Z,8844.00
2019-06-10T08:26:23.264Z,8364.00
2019-06-10T08:27:23.013Z,7604.00
2019-06-10T08:28:23.313Z,8144.00
2019-06-10T08:29:23.554Z,8104.00
2019-06-10T08:30:27.465Z,8080.00
2019-06-10T08:31:23.640Z,8364.00
2019-06-10T08:32:24.502Z,8552.00
2019-06-10T08:33:23.953Z,8444.00
2019-06-10T08:34:24.106Z,8484.00
2019-06-10T08:35:38.503Z,8380.00
2019-06-10T08:36:24.419Z,8392.00
2019-06-10T08:37:24.583Z,8564.00
2019-06-10T08:38:24.729Z,8440.00
2019-06-10T08:39:24.891Z,8568.00
2019-06-10T08:40:25.043Z,8548.00
2019-06-10T08:41:25.199Z,8804.00
2019-06-10T08:42:25.356Z,9060.00
2019-06-10T08:43:25.517Z,8764.00
2019-06-10T08:44:25.668Z,9096.00
2019-06-10T08:45:25.823Z,9176.00
2019-06-10T08:46:25.983Z,9404.00
2019-06-10T08:47:26.135Z,9184.00
2019-06-10T08:48:26.289Z,9292.00
2019-06-10T08:49:26.445Z,9064.00
2019-06-10T08:50:26.595Z,8784.00
2019-06-10T08:51:26.751Z,8752.00
2019-06-10T08:52:26.921Z,8540.00
2019-06-10T08:53:27.079Z,8096.00
2019-06-10T08:54:27.239Z,8168.00
2019-06-10T08:55:27.391Z,7824.00
2019-06-10T08:56:27.550Z,7860.00
2019-06-10T08:57:27.703Z,7256.00
2019-06-10T08:58:27.857Z,7384.00
2019-06-10T08:59:28.017Z,8020.00
2019-06-10T09:00:28.174Z,8076.00
2019-06-10T09:01:28.326Z,7360.00
2019-06-10T09:02:28.481Z,7008.00
2019-06-10T09:03:28.643Z,7252.00
2019-06-10T09:04:29.550Z,7608.00
2019-06-10T09:05:28.956Z,7776.00
2019-06-10T09:06:29.111Z,7860.00
2019-06-10T09:07:29.268Z,7800.00
2019-06-10T09:08:29.422Z,7796.00
2019-06-10T09:09:29.579Z,7560.00
2019-06-10T09:10:29.743Z,7588.00
2019-06-10T09:11:29.897Z,7428.00
2019-06-10T09:12:35.822Z,7392.00
2019-06-10T09:13:31.261Z,7448.00
2019-06-10T09:14:32.590Z,7676.00
2019-06-10T09:15:32.507Z,7700.00
2019-06-10T09:16:32.434Z,7624.00
2019-06-10T09:17:33.804Z,7656.00
2019-06-10T09:18:33.440Z,7924.00
2019-06-10T09:19:33.218Z,8164.00
2019-06-10T09:20:33.127Z,7988.00
2019-06-10T09:21:32.991Z,8184.00
2019-06-10T09:22:32.717Z,6608.00
2019-06-10T09:23:33.116Z,6156.00
2019-06-10T09:24:32.767Z,7428.00
2019-06-10T09:25:33.353Z,6448.00
2019-06-10T09:26:33.695Z,6408.00
2019-06-10T09:27:32.857Z,8248.00
2019-06-10T09:28:32.952Z,6600.00
2019-06-10T09:29:33.003Z,6088.00
2019-06-10T09:30:33.397Z,6060.00
2019-06-10T09:31:33.254Z,6592.00
2019-06-10T09:32:33.205Z,8940.00
2019-06-10T09:33:33.395Z,9332.00
2019-06-10T09:34:33.518Z,9508.00
2019-06-10T09:35:33.678Z,9428.00
2019-06-10T09:36:33.833Z,9432.00
2019-06-10T09:37:33.990Z,9256.00
2019-06-10T09:38:34.667Z,8608.00
2019-06-10T09:39:34.310Z,8124.00
2019-06-10T09:40:34.463Z,8284.00
2019-06-10T09:41:40.121Z,8036.00
2019-06-10T09:42:34.777Z,8276.00
2019-06-10T09:43:34.933Z,7024.00
2019-06-10T09:44:35.093Z,8184.00
2019-06-10T09:45:35.248Z,7172.00
2019-06-10T09:46:35.406Z,8492.00
2019-06-10T09:47:35.564Z,6744.00
2019-06-10T09:48:35.722Z,7152.00
2019-06-10T09:49:35.888Z,8048.00
2019-06-10T09:50:36.035Z,10296.00
2019-06-10T09:51:36.191Z,10484.00
2019-06-10T09:52:36.347Z,9288.00
2019-06-10T09:53:42.794Z,9332.00
2019-06-10T09:54:36.663Z,9020.00
2019-06-10T09:55:36.823Z,8764.00
2019-06-10T09:56:36.980Z,8688.00
2019-06-10T09:57:37.137Z,8976.00
2019-06-10T09:58:37.296Z,9456.00
2019-06-10T09:59:37.454Z,11872.00
2019-06-10T10:00:37.612Z,11680.00
2019-06-10T10:01:37.769Z,11824.00
2019-06-10T10:02:37.926Z,11620.00
2019-06-10T10:03:38.082Z,11184.00
2019-06-10T10:04:38.274Z,10656.00
2019-06-10T10:05:38.397Z,10612.00
2019-06-10T10:06:38.553Z,10816.00
2019-06-10T10:07:38.711Z,11332.00
2019-06-10T10:08:38.868Z,11656.00
2019-06-10T10:09:39.027Z,11800.00
2019-06-10T10:10:39.187Z,11644.00
2019-06-10T10:11:39.361Z,11088.00
2019-06-10T10:12:39.502Z,8792.00
2019-06-10T10:13:42.461Z,8692.00
2019-06-10T10:14:39.823Z,8364.00
2019-06-10T10:15:39.980Z,8196.00
2019-06-10T10:16:40.846Z,7976.00
2019-06-10T10:17:44.489Z,7948.00
2019-06-10T10:18:42.520Z,8296.00
2019-06-10T10:19:43.304Z,8656.00
2019-06-10T10:20:44.600Z,10404.00
2019-06-10T10:21:45.650Z,11444.00
2019-06-10T10:22:43.786Z,11820.00
2019-06-10T10:23:52.494Z,10572.00
2019-06-10T10:24:43.865Z,11052.00
2019-06-10T10:25:44.877Z,10880.00
2019-06-10T10:26:43.341Z,10544.00
2019-06-10T10:27:45.563Z,10548.00
2019-06-10T10:28:42.794Z,10068.00
2019-06-10T10:29:43.680Z,9292.00
2019-06-10T10:30:44.970Z,8636.00
2019-06-10T10:31:44.991Z,8764.00
2019-06-10T10:32:46.876Z,9212.00
2019-06-10T10:33:43.107Z,9512.00
2019-06-10T10:34:45.040Z,9840.00
2019-06-10T10:35:45.766Z,10696.00
2019-06-10T10:36:45.362Z,11280.00
2019-06-10T10:37:44.571Z,11380.00
2019-06-10T10:38:44.738Z,11332.00
2019-06-10T10:39:44.682Z,11336.00
2019-06-10T10:40:47.087Z,11524.00
2019-06-10T10:41:45.193Z,13288.00
2019-06-10T10:42:48.605Z,12672.00
2019-06-10T10:43:46.825Z,12012.00
2019-06-10T10:44:48.108Z,11944.00
2019-06-10T10:45:47.468Z,12700.00
2019-06-10T10:46:45.607Z,11884.00
2019-06-10T10:47:45.051Z,13604.00
2019-06-10T10:48:45.206Z,15008.00
2019-06-10T10:49:45.365Z,14024.00
2019-06-10T10:50:45.720Z,13092.00
2019-06-10T10:51:46.923Z,13432.00
2019-06-10T10:52:46.773Z,14088.00
2019-06-10T10:53:50.570Z,15252.00
2019-06-10T10:54:46.754Z,16480.00
2019-06-10T10:55:47.196Z,17600.00
2019-06-10T10:56:49.162Z,18496.00
2019-06-10T10:57:47.263Z,18720.00
2019-06-10T10:58:47.641Z,18624.00
2019-06-10T10:59:47.799Z,20352.00
2019-06-10T11:00:49.769Z,19584.00
2019-06-10T11:01:47.584Z,20928.00
2019-06-10T11:02:50.623Z,19968.00
2019-06-10T11:03:49.555Z,18208.00
2019-06-10T11:04:48.011Z,17984.00
2019-06-10T11:05:49.912Z,17376.00
2019-06-10T11:06:48.043Z,19200.00
2019-06-10T11:07:48.203Z,18176.00
2019-06-10T11:08:48.419Z,17312.00
2019-06-10T11:09:48.952Z,16128.00
2019-06-10T11:10:49.907Z,14912.00
2019-06-10T11:11:48.948Z,14240.00
2019-06-10T11:12:49.088Z,13268.00
2019-06-10T11:13:49.388Z,10948.00
2019-06-10T11:14:49.354Z,10252.00
2019-06-10T11:15:49.486Z,9732.00
2019-06-10T11:16:49.642Z,9776.00
2019-06-10T11:17:49.803Z,9040.00
2019-06-10T11:18:52.000Z,9896.00
2019-06-10T11:19:53.727Z,10396.00
2019-06-10T11:20:51.394Z,10228.00
2019-06-10T11:21:51.507Z,10220.00
2019-06-10T11:22:51.590Z,10200.00
2019-06-10T11:23:54.240Z,10208.00
2019-06-10T11:24:53.593Z,10188.00
2019-06-10T11:25:53.698Z,10200.00
2019-06-10T11:26:55.172Z,10264.00
2019-06-10T11:27:53.062Z,10820.00
2019-06-10T11:28:54.375Z,11680.00
2019-06-10T11:29:53.563Z,11300.00
2019-06-10T11:30:56.358Z,8932.00
2019-06-10T11:31:55.054Z,8896.00
2019-06-10T11:32:55.662Z,8740.00
2019-06-10T11:33:56.993Z,8376.00
2019-06-10T11:34:56.512Z,9732.00
2019-06-10T11:35:55.132Z,9552.00
2019-06-10T11:36:55.050Z,9312.00
2019-06-10T11:37:54.055Z,10868.00
2019-06-10T11:38:55.573Z,11844.00
2019-06-10T11:39:54.963Z,10908.00
2019-06-10T11:40:57.728Z,13856.00
2019-06-10T11:41:56.034Z,12608.00
2019-06-10T11:42:56.514Z,13524.00
2019-06-10T11:43:57.761Z,13976.00
2019-06-10T11:44:57.409Z,14368.00
2019-06-10T11:45:59.850Z,14344.00
2019-06-10T11:46:57.515Z,14700.00
2019-06-10T11:47:56.635Z,15060.00
2019-06-10T11:48:57.247Z,15712.00
2019-06-10T11:49:55.419Z,15844.00
2019-06-10T11:50:58.431Z,15728.00
2019-06-10T11:51:56.494Z,15948.00
2019-06-10T11:53:00.243Z,16088.00
2019-06-10T11:53:57.180Z,15800.00
2019-06-10T11:55:08.869Z,15500.00
2019-06-10T11:55:56.438Z,14832.00
2019-06-10T11:56:57.795Z,14080.00
2019-06-10T11:57:57.705Z,13696.00
2019-06-10T11:58:58.606Z,13832.00
2019-06-10T11:59:57.787Z,13324.00
2019-06-10T12:00:58.789Z,13192.00
2019-06-10T12:01:59.862Z,13120.00
2019-06-10T12:02:58.712Z,13324.00
2019-06-10T12:03:58.887Z,13624.00
2019-06-10T12:04:59.326Z,13384.00
2019-06-10T12:06:00.758Z,12808.00
2019-06-10T12:06:58.953Z,12496.00
2019-06-10T12:08:01.244Z,12096.00
2019-06-10T12:09:00.865Z,11504.00
2019-06-10T12:10:00.786Z,10936.00
2019-06-10T12:11:01.812Z,10340.00
2019-06-10T12:12:01.922Z,9904.00
2019-06-10T12:13:03.054Z,9900.00
2019-06-10T12:14:03.884Z,10552.00
2019-06-10T12:15:01.257Z,11436.00
2019-06-10T12:17:11.219Z,12436.00
2019-06-10T12:17:22.293Z,13164.00
2019-06-10T12:18:05.978Z,13840.00
2019-06-10T12:19:00.852Z,14656.00
2019-06-10T12:20:02.989Z,14648.00
2019-06-10T12:21:03.565Z,15040.00